createdAt,value
2018-09-12T00:01:20.875Z,19.81
2018-09-12T00:03:49.830Z,20.30
2018-09-12T00:06:18.850Z,20.13
2018-09-12T00:08:47.843Z,20.23
2018-09-12T00:11:16.934Z,20.00
2018-09-12T00:13:45.963Z,20.37
2018-09-12T00:16:15.073Z,20.31
2018-09-12T00:18:44.063Z,20.53
2018-09-12T00:21:13.124Z,20.36
2018-09-12T00:23:42.142Z,20.27
2018-09-12T00:26:11.197Z,20.20
2018-09-12T00:28:40.089Z,20.19
2018-09-12T00:31:09.132Z,20.23
2018-09-12T00:33:38.111Z,19.78
2018-09-12T00:36:07.057Z,19.90
2018-09-12T00:38:36.121Z,19.99
2018-09-12T00:41:05.198Z,20.14
2018-09-12T00:43:34.121Z,19.65
2018-09-12T00:46:03.161Z,19.76
2018-09-12T00:48:32.174Z,19.45
2018-09-12T00:51:01.193Z,19.59
2018-09-12T00:53:30.126Z,19.42
2018-09-12T00:55:59.105Z,19.43
2018-09-12T00:58:28.058Z,19.12
2018-09-12T01:00:57.102Z,19.31
2018-09-12T01:03:26.026Z,19.61
2018-09-12T01:05:55.002Z,19.59
2018-09-12T01:08:23.953Z,19.49
2018-09-12T01:10:52.937Z,19.68
2018-09-12T01:13:21.870Z,19.59
2018-09-12T01:15:50.877Z,19.53
2018-09-12T01:18:20.849Z,19.58
2018-09-12T01:20:51.422Z,19.22
2018-09-12T01:23:21.365Z,19.51
2018-09-12T01:25:50.388Z,19.23
2018-09-12T01:28:19.410Z,19.49
2018-09-12T01:30:48.454Z,19.60
2018-09-12T01:33:17.377Z,19.36
2018-09-12T01:35:46.346Z,19.31
2018-09-12T01:38:15.326Z,19.14
2018-09-12T01:40:44.350Z,19.14
2018-09-12T01:43:13.294Z,19.24
2018-09-12T01:45:42.321Z,19.22
2018-09-12T01:48:11.227Z,19.37
2018-09-12T01:50:40.349Z,19.29
2018-09-12T01:53:09.266Z,18.93
2018-09-12T01:55:38.267Z,18.84
2018-09-12T01:58:07.377Z,18.67
2018-09-12T02:00:39.438Z,18.84
2018-09-12T02:03:08.662Z,18.97
2018-09-12T02:05:38.329Z,18.71
2018-09-12T02:08:07.598Z,18.81
2018-09-12T02:10:36.584Z,18.78
2018-09-12T02:13:05.554Z,18.76
2018-09-12T02:15:34.488Z,18.72
2018-09-12T02:18:03.476Z,18.67
2018-09-12T02:20:32.425Z,18.66
2018-09-12T02:23:01.378Z,18.77
2018-09-12T02:25:30.349Z,18.79
2018-09-12T02:27:59.307Z,18.51
2018-09-12T02:30:28.212Z,18.49
2018-09-12T02:32:57.191Z,18.58
2018-09-12T02:35:26.120Z,18.33
2018-09-12T02:37:55.125Z,18.59
2018-09-12T02:40:24.072Z,18.59
2018-09-12T02:42:53.014Z,18.32
2018-09-12T02:45:21.981Z,18.54
2018-09-12T02:47:51.008Z,18.71
2018-09-12T02:50:19.922Z,18.73
2018-09-12T02:52:48.930Z,18.49
2018-09-12T02:55:17.888Z,18.31
2018-09-12T02:57:46.977Z,18.24
2018-09-12T03:00:15.936Z,18.46
2018-09-12T03:02:44.939Z,18.31
2018-09-12T03:05:13.949Z,18.32
2018-09-12T03:07:43.001Z,18.27
2018-09-12T03:10:12.067Z,17.90
2018-09-12T03:12:41.002Z,18.17
2018-09-12T03:15:09.966Z,18.11
2018-09-12T03:17:39.101Z,17.97
2018-09-12T03:20:08.016Z,17.98
2018-09-12T03:22:37.046Z,17.74
2018-09-12T03:25:06.002Z,17.72
2018-09-12T03:27:35.052Z,17.78
2018-09-12T03:30:04.066Z,17.53
2018-09-12T03:32:33.129Z,17.55
2018-09-12T03:35:02.016Z,17.31
2018-09-12T03:37:31.054Z,16.76
2018-09-12T03:40:00.041Z,17.18
2018-09-12T03:42:29.026Z,17.11
2018-09-12T03:44:58.118Z,17.54
2018-09-12T03:47:27.141Z,17.31
2018-09-12T03:49:56.089Z,17.48
2018-09-12T03:52:25.142Z,17.31
2018-09-12T03:54:54.041Z,17.16
2018-09-12T03:57:23.014Z,17.23
2018-09-12T03:59:52.026Z,17.28
2018-09-12T04:02:21.110Z,17.28
2018-09-12T04:04:50.080Z,17.24
2018-09-12T04:07:19.271Z,17.11
2018-09-12T04:09:48.293Z,17.31
2018-09-12T04:12:17.257Z,17.11
2018-09-12T04:14:46.246Z,17.07
2018-09-12T04:17:15.282Z,16.76
2018-09-12T04:19:44.236Z,17.20
2018-09-12T04:22:13.190Z,17.33
2018-09-12T04:24:42.180Z,17.50
2018-09-12T04:27:11.330Z,17.41
2018-09-12T04:29:40.393Z,17.53
2018-09-12T04:32:09.454Z,17.38
2018-09-12T04:34:38.421Z,17.53
2018-09-12T04:37:07.561Z,17.27
2018-09-12T04:39:36.601Z,16.99
2018-09-12T04:42:05.798Z,17.00
2018-09-12T04:44:34.771Z,17.01
2018-09-12T04:47:03.929Z,16.88
2018-09-12T04:49:32.913Z,17.22
2018-09-12T04:52:01.930Z,17.00
2018-09-12T04:54:30.901Z,16.74
2018-09-12T04:56:59.865Z,16.73
2018-09-12T04:59:28.910Z,16.25
2018-09-12T05:01:57.927Z,16.22
2018-09-12T05:04:26.978Z,15.55
2018-09-12T05:06:55.977Z,16.07
2018-09-12T05:09:24.947Z,15.97
2018-09-12T05:11:53.949Z,16.13
2018-09-12T05:14:22.979Z,16.15
2018-09-12T05:16:52.132Z,15.99
2018-09-12T05:19:21.175Z,16.18
2018-09-12T05:21:50.205Z,16.11
2018-09-12T05:24:19.277Z,16.56
2018-09-12T05:26:48.329Z,16.27
2018-09-12T05:29:17.308Z,16.55
2018-09-12T05:31:46.414Z,16.24
2018-09-12T05:34:15.402Z,16.52
2018-09-12T05:36:44.377Z,16.72
2018-09-12T05:39:13.380Z,16.35
2018-09-12T05:41:42.377Z,16.03
2018-09-12T05:44:11.357Z,16.11
2018-09-12T05:46:40.352Z,16.18
2018-09-12T05:49:09.278Z,16.47
2018-09-12T05:51:38.346Z,16.97
2018-09-12T05:54:07.386Z,17.09
2018-09-12T05:56:36.533Z,16.99
2018-09-12T05:59:05.713Z,17.12
2018-09-12T06:01:34.718Z,17.17
2018-09-12T06:04:03.740Z,17.49
2018-09-12T06:06:32.771Z,17.76
2018-09-12T06:09:01.691Z,17.51
2018-09-12T06:11:30.671Z,18.06
2018-09-12T06:13:59.680Z,18.47
2018-09-12T06:16:29.448Z,17.97
2018-09-12T06:18:58.560Z,17.91
2018-09-12T06:21:27.857Z,18.09
2018-09-12T06:23:56.787Z,17.95
2018-09-12T06:26:25.761Z,18.29
2018-09-12T06:28:54.766Z,18.52
2018-09-12T06:31:23.659Z,18.65
2018-09-12T06:33:52.620Z,18.94
2018-09-12T06:36:21.677Z,19.32
2018-09-12T06:38:50.602Z,19.65
2018-09-12T06:41:19.577Z,19.99
2018-09-12T06:43:48.589Z,19.54
2018-09-12T06:46:17.527Z,19.54
2018-09-12T06:48:46.698Z,20.29
2018-09-12T06:51:15.761Z,19.84
2018-09-12T06:53:44.859Z,19.95
2018-09-12T06:56:14.348Z,19.53
2018-09-12T06:58:43.381Z,20.00
2018-09-12T07:01:12.354Z,20.03
2018-09-12T07:03:41.372Z,20.23
2018-09-12T07:06:10.309Z,20.08
2018-09-12T07:08:39.356Z,19.93
2018-09-12T07:11:08.340Z,19.71
2018-09-12T07:13:37.388Z,19.45
2018-09-12T07:16:06.369Z,20.34
2018-09-12T07:18:35.418Z,20.65
2018-09-12T07:21:04.362Z,20.00
2018-09-12T07:23:33.420Z,21.07
2018-09-12T07:26:02.382Z,21.42
2018-09-12T07:28:31.498Z,20.46
2018-09-12T07:31:00.442Z,20.80
2018-09-12T07:33:29.457Z,21.19
2018-09-12T07:35:58.481Z,21.09
2018-09-12T07:38:27.567Z,20.88
2018-09-12T07:40:56.517Z,21.07
2018-09-12T07:43:25.576Z,21.19
2018-09-12T07:45:54.613Z,21.61
2018-09-12T07:48:23.610Z,22.30
2018-09-12T07:50:52.576Z,21.66
2018-09-12T07:53:21.554Z,21.06
2018-09-12T07:55:50.516Z,22.16
2018-09-12T07:58:19.547Z,21.50
2018-09-12T08:00:48.618Z,22.13
2018-09-12T08:03:17.594Z,21.17
2018-09-12T08:05:46.593Z,22.31
2018-09-12T08:08:15.647Z,22.43
2018-09-12T08:10:44.565Z,22.03
2018-09-12T08:13:13.570Z,23.50
2018-09-12T08:15:42.509Z,23.93
2018-09-12T08:18:11.446Z,23.36
2018-09-12T08:20:40.370Z,23.21
2018-09-12T08:23:09.398Z,23.62
2018-09-12T08:25:38.369Z,23.83
2018-09-12T08:28:07.416Z,23.83
2018-09-12T08:30:36.441Z,24.06
2018-09-12T08:33:05.558Z,24.32
2018-09-12T08:35:34.733Z,24.41
2018-09-12T08:38:04.094Z,24.16
2018-09-12T08:40:33.101Z,24.25
2018-09-12T08:43:02.032Z,25.21
2018-09-12T08:45:30.965Z,24.84
2018-09-12T08:48:00.126Z,24.82
2018-09-12T08:50:29.000Z,24.99
2018-09-12T08:52:58.018Z,24.83
2018-09-12T08:55:27.058Z,25.48
2018-09-12T08:57:56.174Z,25.49
2018-09-12T09:00:30.845Z,25.92
2018-09-12T09:02:59.870Z,26.10
2018-09-12T09:05:28.821Z,25.37
2018-09-12T09:07:57.919Z,25.73
2018-09-12T09:10:27.461Z,27.30
2018-09-12T09:12:57.528Z,26.87
2018-09-12T09:15:27.309Z,27.20
2018-09-12T09:17:56.633Z,25.90
2018-09-12T09:20:26.026Z,26.06
2018-09-12T09:22:55.193Z,26.90
2018-09-12T09:25:24.211Z,26.39
2018-09-12T09:27:53.177Z,26.90
2018-09-12T09:30:22.372Z,26.97
2018-09-12T09:32:51.357Z,27.60
2018-09-12T09:35:20.339Z,27.80
2018-09-12T09:37:49.249Z,28.69
2018-09-12T09:40:18.224Z,27.41
2018-09-12T09:42:47.222Z,27.24
2018-09-12T09:45:16.262Z,28.65
2018-09-12T09:47:45.287Z,27.86
2018-09-12T09:50:14.321Z,28.26
2018-09-12T09:52:43.260Z,29.12
2018-09-12T09:55:12.353Z,28.98
2018-09-12T09:57:41.322Z,29.15
2018-09-12T10:00:16.183Z,28.73
2018-09-12T10:02:50.445Z,28.29
2018-09-12T10:05:24.737Z,28.67
2018-09-12T10:07:59.037Z,29.71
2018-09-12T10:10:28.076Z,30.26
2018-09-12T10:12:57.098Z,29.28
2018-09-12T10:15:26.103Z,30.01
2018-09-12T10:17:55.146Z,30.02
2018-09-12T10:20:24.227Z,29.78
2018-09-12T10:22:53.227Z,29.22
2018-09-12T10:25:22.234Z,29.79
2018-09-12T10:27:51.195Z,29.61
2018-09-12T10:30:20.328Z,30.13
2018-09-12T10:32:49.296Z,30.53
2018-09-12T10:35:18.297Z,29.05
2018-09-12T10:37:47.197Z,29.24
2018-09-12T10:40:16.505Z,30.44
2018-09-12T10:42:45.655Z,30.79
2018-09-12T10:45:14.710Z,31.49
2018-09-12T10:47:43.694Z,32.10
2018-09-12T10:50:12.898Z,31.18
2018-09-12T10:52:41.890Z,31.23
2018-09-12T10:55:10.862Z,31.97
2018-09-12T10:57:39.855Z,32.43
2018-09-12T11:00:09.306Z,32.15
2018-09-12T11:02:38.337Z,33.35
2018-09-12T11:05:07.451Z,32.24
2018-09-12T11:07:36.482Z,32.62
2018-09-12T11:10:05.526Z,31.56
2018-09-12T11:12:34.449Z,31.23
2018-09-12T11:15:03.627Z,31.45
2018-09-12T11:17:32.590Z,31.31
2018-09-12T11:20:01.626Z,32.32
2018-09-12T11:22:30.561Z,31.95
2018-09-12T11:24:59.617Z,33.41
2018-09-12T11:27:28.570Z,33.81
2018-09-12T11:29:57.550Z,31.49
2018-09-12T11:32:26.531Z,32.87
2018-09-12T11:34:55.590Z,34.38
2018-09-12T11:37:24.563Z,33.81
2018-09-12T11:39:53.630Z,32.95
2018-09-12T11:42:22.585Z,33.53
2018-09-12T11:44:51.611Z,35.13
2018-09-12T11:47:20.616Z,34.05
2018-09-12T11:49:49.681Z,33.07
2018-09-12T11:52:18.688Z,33.48
2018-09-12T11:54:48.104Z,31.63
2018-09-12T11:57:17.474Z,32.20
2018-09-12T11:59:46.504Z,32.19
2018-09-12T12:02:15.575Z,34.46
2018-09-12T12:04:44.474Z,34.95
2018-09-12T12:07:13.489Z,35.45
2018-09-12T12:09:42.571Z,35.59
2018-09-12T12:12:11.762Z,35.95
2018-09-12T12:14:40.719Z,35.83
2018-09-12T12:17:09.669Z,36.16
2018-09-12T12:19:38.641Z,35.30
2018-09-12T12:22:07.701Z,34.20
2018-09-12T12:24:36.706Z,34.57
2018-09-12T12:27:06.007Z,33.60
2018-09-12T12:29:35.172Z,34.65
2018-09-12T12:32:04.266Z,35.82
2018-09-12T12:34:33.259Z,35.75
2018-09-12T12:37:02.301Z,36.01
2018-09-12T12:39:31.322Z,36.02
2018-09-12T12:42:00.320Z,36.09
2018-09-12T12:44:29.311Z,35.32
2018-09-12T12:46:58.456Z,36.57
2018-09-12T12:49:27.434Z,36.38
2018-09-12T12:51:56.555Z,35.35
2018-09-12T12:54:25.597Z,35.91
2018-09-12T12:56:54.665Z,36.35
2018-09-12T12:59:23.686Z,36.17
2018-09-12T13:01:52.858Z,36.30
2018-09-12T13:04:21.983Z,36.24
2018-09-12T13:06:51.113Z,34.96
2018-09-12T13:09:20.023Z,36.04
2018-09-12T13:11:49.050Z,35.73
2018-09-12T13:14:17.989Z,36.54
2018-09-12T13:16:47.013Z,37.00
2018-09-12T13:19:16.052Z,36.31
2018-09-12T13:21:45.108Z,36.61
2018-09-12T13:24:14.179Z,36.12
2018-09-12T13:26:43.122Z,37.15
2018-09-12T13:29:12.091Z,36.75
2018-09-12T13:31:41.133Z,36.42
2018-09-12T13:34:10.314Z,37.18
2018-09-12T13:36:39.349Z,36.40
2018-09-12T13:39:15.293Z,36.65
2018-09-12T13:41:44.338Z,36.39
2018-09-12T13:44:13.342Z,36.20
2018-09-12T13:46:42.334Z,36.63
2018-09-12T13:49:11.262Z,36.58
2018-09-12T13:51:40.266Z,36.54
2018-09-12T13:54:09.219Z,37.21
2018-09-12T13:56:38.287Z,37.10
2018-09-12T13:59:07.309Z,36.90
2018-09-12T14:01:36.405Z,37.15
2018-09-12T14:04:05.354Z,36.59
2018-09-12T14:06:34.345Z,37.28
2018-09-12T14:09:03.473Z,37.48
2018-09-12T14:11:32.462Z,36.45
2018-09-12T14:14:01.571Z,37.01
2018-09-12T14:16:30.581Z,36.88
2018-09-12T14:18:59.567Z,36.40
2018-09-12T14:21:28.560Z,36.57
2018-09-12T14:23:57.671Z,37.07
2018-09-12T14:26:26.714Z,37.05
2018-09-12T14:28:55.824Z,37.50
2018-09-12T14:31:24.842Z,38.11
2018-09-12T14:33:53.910Z,36.85
2018-09-12T14:36:22.864Z,36.58
2018-09-12T14:38:51.955Z,36.14
2018-09-12T14:41:20.917Z,37.23
2018-09-12T14:43:49.921Z,36.91
2018-09-12T14:46:18.830Z,36.42
2018-09-12T14:48:47.883Z,37.07
2018-09-12T14:51:16.897Z,37.71
2018-09-12T14:53:45.869Z,36.50
2018-09-12T14:56:14.864Z,37.15
2018-09-12T14:58:43.854Z,37.80
2018-09-12T15:01:12.846Z,37.24
2018-09-12T15:03:41.756Z,35.63
2018-09-12T15:06:10.743Z,36.67
2018-09-12T15:08:39.851Z,37.43
2018-09-12T15:11:08.781Z,37.26
2018-09-12T15:13:37.835Z,34.88
2018-09-12T15:16:06.801Z,35.26
2018-09-12T15:18:35.866Z,34.35
2018-09-12T15:21:04.809Z,34.11
2018-09-12T15:23:33.917Z,33.30
2018-09-12T15:26:02.873Z,33.96
2018-09-12T15:28:32.067Z,33.82
2018-09-12T15:31:01.086Z,33.34
2018-09-12T15:33:30.161Z,33.50
2018-09-12T15:35:59.133Z,33.45
2018-09-12T15:38:28.093Z,33.15
2018-09-12T15:40:57.102Z,33.13
2018-09-12T15:43:26.035Z,32.86
2018-09-12T15:45:54.927Z,32.83
2018-09-12T15:48:23.930Z,32.54
2018-09-12T15:50:52.814Z,32.45
2018-09-12T15:53:21.891Z,32.60
2018-09-12T15:55:50.898Z,32.56
2018-09-12T15:58:19.940Z,32.64
2018-09-12T16:00:48.810Z,32.32
2018-09-12T16:03:17.806Z,32.64
2018-09-12T16:05:46.852Z,32.10
2018-09-12T16:08:15.853Z,31.93
2018-09-12T16:10:44.802Z,32.13
2018-09-12T16:13:13.911Z,32.17
2018-09-12T16:15:42.905Z,32.08
2018-09-12T16:18:11.917Z,32.04
2018-09-12T16:20:40.906Z,32.12
2018-09-12T16:23:09.921Z,31.94
2018-09-12T16:25:38.917Z,31.86
2018-09-12T16:28:07.870Z,31.47
2018-09-12T16:30:36.864Z,31.49
2018-09-12T16:33:05.963Z,31.57
2018-09-12T16:35:34.925Z,31.85
2018-09-12T16:38:03.885Z,31.54
2018-09-12T16:40:32.865Z,31.98
2018-09-12T16:43:01.927Z,31.34
2018-09-12T16:45:30.913Z,31.54
2018-09-12T16:47:59.954Z,31.51
2018-09-12T16:50:28.921Z,31.91
2018-09-12T16:52:57.929Z,31.59
2018-09-12T16:55:26.936Z,31.55
2018-09-12T16:57:55.981Z,31.64
2018-09-12T17:00:25.001Z,31.59
2018-09-12T17:02:54.279Z,31.68
2018-09-12T17:05:23.236Z,31.56
2018-09-12T17:07:52.217Z,31.59
2018-09-12T17:10:21.208Z,31.43
2018-09-12T17:12:50.181Z,31.28
2018-09-12T17:15:19.237Z,31.19
2018-09-12T17:17:48.289Z,31.00
2018-09-12T17:20:17.732Z,30.93
2018-09-12T17:22:46.742Z,30.86
2018-09-12T17:25:15.669Z,31.09
2018-09-12T17:27:44.690Z,30.72
2018-09-12T17:30:13.690Z,30.69
2018-09-12T17:32:42.638Z,30.77
2018-09-12T17:35:11.658Z,30.90
2018-09-12T17:37:40.592Z,30.88
2018-09-12T17:40:09.594Z,30.83
2018-09-12T17:42:38.490Z,30.46
2018-09-12T17:45:08.266Z,30.43
2018-09-12T17:47:37.504Z,30.07
2018-09-12T17:50:06.569Z,29.98
2018-09-12T17:52:35.466Z,29.84
2018-09-12T17:55:04.500Z,29.54
2018-09-12T17:57:33.379Z,29.00
2018-09-12T18:00:02.373Z,28.83
2018-09-12T18:02:31.331Z,28.71
2018-09-12T18:05:00.310Z,28.85
2018-09-12T18:07:29.224Z,28.56
2018-09-12T18:09:58.343Z,28.69
2018-09-12T18:12:27.294Z,28.43
2018-09-12T18:14:56.237Z,28.61
2018-09-12T18:17:25.187Z,28.66
2018-09-12T18:19:54.154Z,28.47
2018-09-12T18:22:23.193Z,28.13
2018-09-12T18:24:52.336Z,28.50
2018-09-12T18:27:21.365Z,28.16
2018-09-12T18:29:50.467Z,27.79
2018-09-12T18:32:19.417Z,27.69
2018-09-12T18:34:48.445Z,27.82
2018-09-12T18:37:17.474Z,27.45
2018-09-12T18:39:46.416Z,27.47
2018-09-12T18:42:15.365Z,27.19
2018-09-12T18:44:44.337Z,27.47
2018-09-12T18:47:13.226Z,27.39
2018-09-12T18:49:42.223Z,27.35
2018-09-12T18:52:11.212Z,27.31
2018-09-12T18:54:40.247Z,27.02
2018-09-12T18:57:09.155Z,26.94
2018-09-12T18:59:38.231Z,26.76
2018-09-12T19:02:07.273Z,26.57
2018-09-12T19:04:36.328Z,26.64
2018-09-12T19:07:05.380Z,26.39
2018-09-12T19:09:34.350Z,26.65
2018-09-12T19:12:03.291Z,26.23
2018-09-12T19:14:32.226Z,26.17
2018-09-12T19:17:01.214Z,26.17
2018-09-12T19:19:30.170Z,26.09
2018-09-12T19:21:59.173Z,26.28
2018-09-12T19:24:28.158Z,25.92
2018-09-12T19:26:57.201Z,25.65
2018-09-12T19:29:26.162Z,25.49
2018-09-12T19:31:55.053Z,25.41
2018-09-12T19:34:24.012Z,25.35
2018-09-12T19:36:53.231Z,25.29
2018-09-12T19:39:22.258Z,25.21
2018-09-12T19:41:51.217Z,25.27
2018-09-12T19:44:20.278Z,25.11
2018-09-12T19:46:49.225Z,25.09
2018-09-12T19:49:18.194Z,24.91
2018-09-12T19:51:47.170Z,24.74
2018-09-12T19:54:16.196Z,24.95
2018-09-12T19:56:45.142Z,24.88
2018-09-12T19:59:14.231Z,24.83
2018-09-12T20:01:43.150Z,24.54
2018-09-12T20:04:12.189Z,24.63
2018-09-12T20:06:41.172Z,24.72
2018-09-12T20:09:11.615Z,24.39
2018-09-12T20:11:41.037Z,24.31
2018-09-12T20:14:10.103Z,24.08
2018-09-12T20:16:39.010Z,24.16
2018-09-12T20:19:08.110Z,23.90
2018-09-12T20:21:37.133Z,24.05
2018-09-12T20:24:06.161Z,23.75
2018-09-12T20:26:35.206Z,23.83
2018-09-12T20:29:04.133Z,24.04
2018-09-12T20:31:33.080Z,23.65
2018-09-12T20:34:02.010Z,23.78
2018-09-12T20:36:31.089Z,23.66
2018-09-12T20:39:00.168Z,23.51
2018-09-12T20:41:29.209Z,23.42
2018-09-12T20:43:58.159Z,23.22
2018-09-12T20:46:27.095Z,23.33
2018-09-12T20:48:56.164Z,23.13
2018-09-12T20:51:25.149Z,23.33
2018-09-12T20:53:54.217Z,23.25
2018-09-12T20:56:23.227Z,23.12
2018-09-12T20:58:52.158Z,22.93
2018-09-12T21:01:21.167Z,23.10
2018-09-12T21:03:50.066Z,23.01
2018-09-12T21:06:19.057Z,22.57
2018-09-12T21:08:48.045Z,22.95
2018-09-12T21:11:17.082Z,22.96
2018-09-12T21:13:46.096Z,22.88
2018-09-12T21:16:15.122Z,22.65
2018-09-12T21:18:44.082Z,22.81
2018-09-12T21:21:13.106Z,22.79
2018-09-12T21:23:42.125Z,22.51
2018-09-12T21:26:11.143Z,22.62
2018-09-12T21:28:40.201Z,22.34
2018-09-12T21:31:09.184Z,22.41
2018-09-12T21:33:38.147Z,22.46
2018-09-12T21:36:07.235Z,22.34
2018-09-12T21:38:36.174Z,22.14
2018-09-12T21:41:05.327Z,22.13
2018-09-12T21:43:34.225Z,22.18
2018-09-12T21:46:03.291Z,22.26
2018-09-12T21:48:32.209Z,22.05
2018-09-12T21:51:01.154Z,22.12
2018-09-12T21:53:30.097Z,21.93
2018-09-12T21:55:59.067Z,21.84
2018-09-12T21:58:27.981Z,22.10
2018-09-12T22:00:57.104Z,22.07
2018-09-12T22:03:26.164Z,22.02
2018-09-12T22:05:55.191Z,21.85
2018-09-12T22:08:24.210Z,21.77
2018-09-12T22:10:53.185Z,21.80
2018-09-12T22:13:22.167Z,21.83
2018-09-12T22:15:51.241Z,21.68
2018-09-12T22:18:20.280Z,21.81
2018-09-12T22:20:49.349Z,21.83
2018-09-12T22:23:18.325Z,21.88
2018-09-12T22:25:47.308Z,21.76
2018-09-12T22:28:16.265Z,21.52
2018-09-12T22:30:45.579Z,21.60
2018-09-12T22:33:14.533Z,21.54
2018-09-12T22:35:43.590Z,21.51
2018-09-12T22:38:12.494Z,21.48
2018-09-12T22:40:41.495Z,21.19
2018-09-12T22:43:10.493Z,21.59
2018-09-12T22:45:39.598Z,21.53
2018-09-12T22:48:08.574Z,21.24
2018-09-12T22:50:37.564Z,20.96
2018-09-12T22:53:06.584Z,21.46
2018-09-12T22:55:35.559Z,20.87
2018-09-12T22:58:04.571Z,20.94
2018-09-12T23:00:33.614Z,21.04
2018-09-12T23:03:02.571Z,21.01
2018-09-12T23:05:31.542Z,20.67
2018-09-12T23:08:00.483Z,20.94
2018-09-12T23:10:29.494Z,21.00
2018-09-12T23:12:58.406Z,21.40
2018-09-12T23:15:27.489Z,21.15
2018-09-12T23:17:56.415Z,21.66
2018-09-12T23:20:25.444Z,21.80
2018-09-12T23:22:54.434Z,21.51
2018-09-12T23:25:23.409Z,21.13
2018-09-12T23:27:52.447Z,21.14
2018-09-12T23:30:21.390Z,21.26
2018-09-12T23:32:50.446Z,21.36
2018-09-12T23:35:19.493Z,21.43
2018-09-12T23:37:48.480Z,21.22
2018-09-12T23:40:17.393Z,21.28
2018-09-12T23:42:46.317Z,20.85
2018-09-12T23:45:15.363Z,20.91
2018-09-12T23:47:44.286Z,20.94
2018-09-12T23:50:13.258Z,21.07
2018-09-12T23:52:42.257Z,21.00
2018-09-12T23:55:11.241Z,21.09
2018-09-12T23:57:40.234Z,20.90
